Harrod, Ohio
Current Conditions -  °F | °C
As of 7:53 PM on Saturday 22 Nov 2014 (Local Time) from KAOH Reporting Station
Overcast Overcast  
Wind Chill: 51°   Ceiling: 4600
Heat Index: 51°   Visibility: 10mi
Dew Point: 41°   Wind: 14mph
Humidity: 68%   Direction: 180°S
Pressure: 30"   Gusts: NA
Location:  40.71°N, 83.92°W
Report Text: KAOH 230053Z AUTO 18012KT 10SM OVC046 11/05 A3000 RMK AO2 RAB16E42 SLP164 P0000 T01060050
Loading
Personal Weather Stations






























Interactive Weather Map New forecast layout! Learn more

10-Day Weather Forecast

Advertisements
Track Severe Weather on mobile